sensor_id;sensor_type;location;lat;lon;timestamp;P1;durP1;ratioP1;P2;durP2;ratioP2
76447;SDS011;65284;51.040;13.722;2023-04-25T00:01:51;3.97;;;2.25;;
76447;SDS011;65284;51.040;13.722;2023-04-25T00:04:18;4.35;;;2.47;;
76447;SDS011;65284;51.040;13.722;2023-04-25T00:06:45;5.15;;;2.35;;
76447;SDS011;65284;51.040;13.722;2023-04-25T00:09:12;4.60;;;2.50;;
76447;SDS011;65284;51.040;13.722;2023-04-25T00:11:39;4.53;;;2.47;;
76447;SDS011;65284;51.040;13.722;2023-04-25T00:14:06;4.53;;;2.40;;
76447;SDS011;65284;51.040;13.722;2023-04-25T00:16:33;4.82;;;2.70;;
76447;SDS011;65284;51.040;13.722;2023-04-25T00:19:01;6.30;;;2.22;;
76447;SDS011;65284;51.040;13.722;2023-04-25T00:21:29;5.22;;;2.83;;
76447;SDS011;65284;51.040;13.722;2023-04-25T00:23:57;5.80;;;3.00;;
76447;SDS011;65284;51.040;13.722;2023-04-25T00:26:23;5.00;;;2.90;;
76447;SDS011;65284;51.040;13.722;2023-04-25T00:28:51;4.75;;;2.55;;
76447;SDS011;65284;51.040;13.722;2023-04-25T00:31:17;5.40;;;2.70;;
76447;SDS011;65284;51.040;13.722;2023-04-25T00:33:43;4.95;;;2.83;;
76447;SDS011;65284;51.040;13.722;2023-04-25T00:36:10;5.40;;;2.90;;
76447;SDS011;65284;51.040;13.722;2023-04-25T00:38:37;5.88;;;2.70;;
76447;SDS011;65284;51.040;13.722;2023-04-25T00:41:05;6.53;;;3.13;;
76447;SDS011;65284;51.040;13.722;2023-04-25T00:43:32;5.63;;;3.03;;
76447;SDS011;65284;51.040;13.722;2023-04-25T00:46:00;7.15;;;3.30;;
76447;SDS011;65284;51.040;13.722;2023-04-25T00:48:27;6.43;;;3.22;;
76447;SDS011;65284;51.040;13.722;2023-04-25T00:50:54;6.22;;;3.10;;
76447;SDS011;65284;51.040;13.722;2023-04-25T00:53:24;6.68;;;3.15;;
76447;SDS011;65284;51.040;13.722;2023-04-25T00:55:52;7.22;;;3.20;;
76447;SDS011;65284;51.040;13.722;2023-04-25T00:58:20;5.65;;;3.22;;
76447;SDS011;65284;51.040;13.722;2023-04-25T01:00:48;5.45;;;2.95;;
76447;SDS011;65284;51.040;13.722;2023-04-25T01:03:16;6.00;;;3.13;;
76447;SDS011;65284;51.040;13.722;2023-04-25T01:05:46;6.05;;;3.70;;
76447;SDS011;65284;51.040;13.722;2023-04-25T01:08:14;5.82;;;3.33;;
76447;SDS011;65284;51.040;13.722;2023-04-25T01:10:40;7.18;;;3.80;;
76447;SDS011;65284;51.040;13.722;2023-04-25T01:13:07;6.15;;;3.60;;
76447;SDS011;65284;51.040;13.722;2023-04-25T01:15:34;6.97;;;3.58;;
76447;SDS011;65284;51.040;13.722;2023-04-25T01:18:02;7.78;;;3.72;;
76447;SDS011;65284;51.040;13.722;2023-04-25T01:20:29;7.25;;;3.63;;
76447;SDS011;65284;51.040;13.722;2023-04-25T01:22:58;5.93;;;3.67;;
76447;SDS011;65284;51.040;13.722;2023-04-25T01:25:25;6.45;;;3.47;;
76447;SDS011;65284;51.040;13.722;2023-04-25T01:27:52;7.07;;;3.80;;
76447;SDS011;65284;51.040;13.722;2023-04-25T01:30:19;6.80;;;3.63;;
76447;SDS011;65284;51.040;13.722;2023-04-25T01:32:45;7.32;;;3.90;;
76447;SDS011;65284;51.040;13.722;2023-04-25T01:35:13;6.63;;;3.75;;
76447;SDS011;65284;51.040;13.722;2023-04-25T01:37:40;7.15;;;3.53;;
76447;SDS011;65284;51.040;13.722;2023-04-25T01:40:08;7.35;;;3.80;;
76447;SDS011;65284;51.040;13.722;2023-04-25T01:42:36;6.55;;;3.72;;
76447;SDS011;65284;51.040;13.722;2023-04-25T01:45:04;9.88;;;4.05;;
76447;SDS011;65284;51.040;13.722;2023-04-25T01:47:31;6.55;;;3.67;;
76447;SDS011;65284;51.040;13.722;2023-04-25T01:49:58;7.90;;;4.00;;
76447;SDS011;65284;51.040;13.722;2023-04-25T01:52:24;7.47;;;3.60;;
76447;SDS011;65284;51.040;13.722;2023-04-25T01:54:51;7.68;;;3.92;;
76447;SDS011;65284;51.040;13.722;2023-04-25T01:57:17;9.10;;;3.80;;
76447;SDS011;65284;51.040;13.722;2023-04-25T01:59:44;7.30;;;4.05;;
76447;SDS011;65284;51.040;13.722;2023-04-25T02:02:11;6.55;;;3.80;;
76447;SDS011;65284;51.040;13.722;2023-04-25T02:04:37;7.25;;;3.72;;
76447;SDS011;65284;51.040;13.722;2023-04-25T02:07:04;7.30;;;3.70;;
76447;SDS011;65284;51.040;13.722;2023-04-25T02:09:30;7.10;;;3.70;;
76447;SDS011;65284;51.040;13.722;2023-04-25T02:11:57;7.32;;;3.42;;
76447;SDS011;65284;51.040;13.722;2023-04-25T02:14:24;8.50;;;3.65;;
76447;SDS011;65284;51.040;13.722;2023-04-25T02:16:50;9.05;;;3.67;;
76447;SDS011;65284;51.040;13.722;2023-04-25T02:19:17;7.07;;;3.80;;
76447;SDS011;65284;51.040;13.722;2023-04-25T02:21:43;8.02;;;3.63;;
76447;SDS011;65284;51.040;13.722;2023-04-25T02:24:10;8.63;;;3.80;;
76447;SDS011;65284;51.040;13.722;2023-04-25T02:26:36;6.95;;;3.60;;
76447;SDS011;65284;51.040;13.722;2023-04-25T02:29:02;8.27;;;3.90;;
76447;SDS011;65284;51.040;13.722;2023-04-25T02:31:29;6.63;;;4.22;;
76447;SDS011;65284;51.040;13.722;2023-04-25T02:33:55;8.48;;;3.97;;
76447;SDS011;65284;51.040;13.722;2023-04-25T02:36:22;7.55;;;3.97;;
76447;SDS011;65284;51.040;13.722;2023-04-25T02:38:48;6.78;;;3.45;;
76447;SDS011;65284;51.040;13.722;2023-04-25T02:41:15;7.50;;;3.70;;
76447;SDS011;65284;51.040;13.722;2023-04-25T02:43:41;8.68;;;3.72;;
76447;SDS011;65284;51.040;13.722;2023-04-25T02:46:08;6.75;;;3.60;;
76447;SDS011;65284;51.040;13.722;2023-04-25T02:48:34;7.90;;;4.05;;
76447;SDS011;65284;51.040;13.722;2023-04-25T02:51:01;11.18;;;4.03;;
76447;SDS011;65284;51.040;13.722;2023-04-25T02:53:27;7.38;;;3.78;;
76447;SDS011;65284;51.040;13.722;2023-04-25T02:55:53;7.75;;;3.88;;
76447;SDS011;65284;51.040;13.722;2023-04-25T02:58:20;7.00;;;3.53;;
76447;SDS011;65284;51.040;13.722;2023-04-25T03:00:47;8.15;;;4.00;;
76447;SDS011;65284;51.040;13.722;2023-04-25T03:03:13;10.02;;;4.43;;
76447;SDS011;65284;51.040;13.722;2023-04-25T03:05:41;9.27;;;4.47;;
76447;SDS011;65284;51.040;13.722;2023-04-25T03:08:07;9.10;;;4.28;;
76447;SDS011;65284;51.040;13.722;2023-04-25T03:10:33;7.40;;;4.05;;
76447;SDS011;65284;51.040;13.722;2023-04-25T03:13:00;7.13;;;4.07;;
76447;SDS011;65284;51.040;13.722;2023-04-25T03:15:26;8.77;;;4.18;;
76447;SDS011;65284;51.040;13.722;2023-04-25T03:17:53;8.70;;;4.10;;
76447;SDS011;65284;51.040;13.722;2023-04-25T03:20:19;7.18;;;4.22;;
76447;SDS011;65284;51.040;13.722;2023-04-25T03:22:46;8.52;;;4.47;;
76447;SDS011;65284;51.040;13.722;2023-04-25T03:25:12;8.57;;;4.57;;
76447;SDS011;65284;51.040;13.722;2023-04-25T03:27:39;9.35;;;4.15;;
76447;SDS011;65284;51.040;13.722;2023-04-25T03:30:05;9.95;;;4.88;;
76447;SDS011;65284;51.040;13.722;2023-04-25T03:32:34;9.07;;;4.30;;
76447;SDS011;65284;51.040;13.722;2023-04-25T03:35:01;8.90;;;4.70;;
76447;SDS011;65284;51.040;13.722;2023-04-25T03:37:27;8.25;;;4.55;;
76447;SDS011;65284;51.040;13.722;2023-04-25T03:39:54;11.77;;;5.35;;
76447;SDS011;65284;51.040;13.722;2023-04-25T03:42:20;10.05;;;4.82;;
76447;SDS011;65284;51.040;13.722;2023-04-25T03:44:49;9.77;;;4.45;;
76447;SDS011;65284;51.040;13.722;2023-04-25T03:47:16;9.98;;;4.97;;
76447;SDS011;65284;51.040;13.722;2023-04-25T03:49:42;11.27;;;4.72;;
76447;SDS011;65284;51.040;13.722;2023-04-25T03:52:09;8.80;;;4.50;;
76447;SDS011;65284;51.040;13.722;2023-04-25T03:54:35;7.18;;;4.30;;
76447;SDS011;65284;51.040;13.722;2023-04-25T03:57:02;8.25;;;4.40;;
76447;SDS011;65284;51.040;13.722;2023-04-25T03:59:28;7.95;;;4.32;;
76447;SDS011;65284;51.040;13.722;2023-04-25T04:01:54;8.90;;;4.72;;
76447;SDS011;65284;51.040;13.722;2023-04-25T04:04:21;8.88;;;4.43;;
76447;SDS011;65284;51.040;13.722;2023-04-25T04:06:48;12.30;;;4.78;;
76447;SDS011;65284;51.040;13.722;2023-04-25T04:09:14;9.32;;;4.75;;
76447;SDS011;65284;51.040;13.722;2023-04-25T04:11:41;8.38;;;4.75;;
76447;SDS011;65284;51.040;13.722;2023-04-25T04:14:08;9.10;;;5.13;;
76447;SDS011;65284;51.040;13.722;2023-04-25T04:16:36;9.02;;;5.00;;
76447;SDS011;65284;51.040;13.722;2023-04-25T04:19:02;9.88;;;4.95;;
76447;SDS011;65284;51.040;13.722;2023-04-25T04:21:29;10.10;;;5.03;;
76447;SDS011;65284;51.040;13.722;2023-04-25T04:23:56;9.93;;;5.00;;
76447;SDS011;65284;51.040;13.722;2023-04-25T04:26:23;11.15;;;5.10;;
76447;SDS011;65284;51.040;13.722;2023-04-25T04:28:50;10.23;;;5.35;;
76447;SDS011;65284;51.040;13.722;2023-04-25T04:31:20;8.50;;;4.18;;
76447;SDS011;65284;51.040;13.722;2023-04-25T04:33:47;10.50;;;5.03;;
76447;SDS011;65284;51.040;13.722;2023-04-25T04:36:14;9.57;;;4.82;;
76447;SDS011;65284;51.040;13.722;2023-04-25T04:38:41;10.65;;;5.38;;
76447;SDS011;65284;51.040;13.722;2023-04-25T04:41:08;9.60;;;5.30;;
76447;SDS011;65284;51.040;13.722;2023-04-25T04:43:34;10.05;;;5.20;;
76447;SDS011;65284;51.040;13.722;2023-04-25T04:46:01;10.55;;;5.28;;
76447;SDS011;65284;51.040;13.722;2023-04-25T04:48:27;10.75;;;5.13;;
76447;SDS011;65284;51.040;13.722;2023-04-25T04:50:54;12.10;;;5.85;;
76447;SDS011;65284;51.040;13.722;2023-04-25T04:53:20;9.35;;;5.65;;
76447;SDS011;65284;51.040;13.722;2023-04-25T04:55:47;10.40;;;5.20;;
76447;SDS011;65284;51.040;13.722;2023-04-25T04:58:13;11.13;;;5.32;;
76447;SDS011;65284;51.040;13.722;2023-04-25T05:00:42;11.40;;;5.13;;
76447;SDS011;65284;51.040;13.722;2023-04-25T05:03:08;12.90;;;5.97;;
76447;SDS011;65284;51.040;13.722;2023-04-25T05:05:35;9.73;;;5.22;;
76447;SDS011;65284;51.040;13.722;2023-04-25T05:08:01;10.95;;;5.65;;
76447;SDS011;65284;51.040;13.722;2023-04-25T05:10:27;10.50;;;5.15;;
76447;SDS011;65284;51.040;13.722;2023-04-25T05:12:54;10.18;;;5.32;;
76447;SDS011;65284;51.040;13.722;2023-04-25T05:15:20;10.80;;;5.20;;
76447;SDS011;65284;51.040;13.722;2023-04-25T05:17:47;9.07;;;5.22;;
76447;SDS011;65284;51.040;13.722;2023-04-25T05:20:13;10.65;;;5.20;;
76447;SDS011;65284;51.040;13.722;2023-04-25T05:22:40;8.60;;;4.88;;
76447;SDS011;65284;51.040;13.722;2023-04-25T05:25:08;9.60;;;4.93;;
76447;SDS011;65284;51.040;13.722;2023-04-25T05:27:35;11.73;;;5.10;;
76447;SDS011;65284;51.040;13.722;2023-04-25T05:30:01;8.77;;;4.45;;
76447;SDS011;65284;51.040;13.722;2023-04-25T05:32:28;8.60;;;4.28;;
76447;SDS011;65284;51.040;13.722;2023-04-25T05:34:55;9.93;;;4.60;;
76447;SDS011;65284;51.040;13.722;2023-04-25T05:37:21;10.43;;;4.75;;
76447;SDS011;65284;51.040;13.722;2023-04-25T05:39:47;10.48;;;4.80;;
76447;SDS011;65284;51.040;13.722;2023-04-25T05:42:14;7.65;;;4.03;;
76447;SDS011;65284;51.040;13.722;2023-04-25T05:44:40;10.35;;;5.07;;
76447;SDS011;65284;51.040;13.722;2023-04-25T05:47:07;9.00;;;4.13;;
76447;SDS011;65284;51.040;13.722;2023-04-25T05:49:34;10.60;;;5.38;;
76447;SDS011;65284;51.040;13.722;2023-04-25T05:52:03;10.43;;;4.75;;
76447;SDS011;65284;51.040;13.722;2023-04-25T05:54:30;9.43;;;4.68;;
76447;SDS011;65284;51.040;13.722;2023-04-25T05:56:56;12.68;;;4.82;;
76447;SDS011;65284;51.040;13.722;2023-04-25T05:59:23;12.75;;;5.10;;
76447;SDS011;65284;51.040;13.722;2023-04-25T06:01:49;10.20;;;5.03;;
76447;SDS011;65284;51.040;13.722;2023-04-25T06:04:16;9.57;;;4.75;;
76447;SDS011;65284;51.040;13.722;2023-04-25T06:06:42;12.00;;;4.88;;
76447;SDS011;65284;51.040;13.722;2023-04-25T06:09:09;11.95;;;5.07;;
76447;SDS011;65284;51.040;13.722;2023-04-25T06:11:39;13.70;;;4.97;;
76447;SDS011;65284;51.040;13.722;2023-04-25T06:14:05;11.57;;;5.18;;
76447;SDS011;65284;51.040;13.722;2023-04-25T06:16:32;10.75;;;5.65;;
76447;SDS011;65284;51.040;13.722;2023-04-25T06:18:58;16.55;;;5.63;;
76447;SDS011;65284;51.040;13.722;2023-04-25T06:21:25;12.82;;;4.95;;
76447;SDS011;65284;51.040;13.722;2023-04-25T06:23:51;13.25;;;5.60;;
76447;SDS011;65284;51.040;13.722;2023-04-25T06:26:18;10.88;;;5.50;;
76447;SDS011;65284;51.040;13.722;2023-04-25T06:28:45;11.20;;;5.10;;
76447;SDS011;65284;51.040;13.722;2023-04-25T06:31:11;13.02;;;5.25;;
76447;SDS011;65284;51.040;13.722;2023-04-25T06:33:38;13.52;;;6.30;;
76447;SDS011;65284;51.040;13.722;2023-04-25T06:36:04;11.20;;;5.88;;
76447;SDS011;65284;51.040;13.722;2023-04-25T06:38:31;12.57;;;5.55;;
76447;SDS011;65284;51.040;13.722;2023-04-25T06:40:57;13.27;;;5.13;;
76447;SDS011;65284;51.040;13.722;2023-04-25T06:43:24;17.15;;;5.78;;
76447;SDS011;65284;51.040;13.722;2023-04-25T06:45:50;12.57;;;6.03;;
76447;SDS011;65284;51.040;13.722;2023-04-25T06:48:17;10.00;;;5.50;;
76447;SDS011;65284;51.040;13.722;2023-04-25T06:50:43;13.15;;;5.95;;
76447;SDS011;65284;51.040;13.722;2023-04-25T06:53:10;11.45;;;5.70;;
76447;SDS011;65284;51.040;13.722;2023-04-25T06:55:37;11.68;;;5.68;;
76447;SDS011;65284;51.040;13.722;2023-04-25T06:58:04;11.75;;;5.55;;
76447;SDS011;65284;51.040;13.722;2023-04-25T07:00:30;11.48;;;5.35;;
76447;SDS011;65284;51.040;13.722;2023-04-25T07:02:58;10.45;;;4.97;;
76447;SDS011;65284;51.040;13.722;2023-04-25T07:05:25;12.45;;;5.78;;
76447;SDS011;65284;51.040;13.722;2023-04-25T07:07:51;13.27;;;5.68;;
76447;SDS011;65284;51.040;13.722;2023-04-25T07:10:18;12.35;;;5.80;;
76447;SDS011;65284;51.040;13.722;2023-04-25T07:12:44;12.60;;;5.43;;
76447;SDS011;65284;51.040;13.722;2023-04-25T07:15:10;11.52;;;4.75;;
76447;SDS011;65284;51.040;13.722;2023-04-25T07:17:37;9.60;;;5.20;;
76447;SDS011;65284;51.040;13.722;2023-04-25T07:20:04;18.80;;;8.60;;
76447;SDS011;65284;51.040;13.722;2023-04-25T07:22:32;9.35;;;4.32;;
76447;SDS011;65284;51.040;13.722;2023-04-25T07:24:58;10.43;;;4.20;;
76447;SDS011;65284;51.040;13.722;2023-04-25T07:27:25;8.77;;;4.53;;
76447;SDS011;65284;51.040;13.722;2023-04-25T07:29:51;8.55;;;4.68;;
76447;SDS011;65284;51.040;13.722;2023-04-25T07:32:18;10.52;;;4.68;;
76447;SDS011;65284;51.040;13.722;2023-04-25T07:34:45;9.95;;;5.03;;
76447;SDS011;65284;51.040;13.722;2023-04-25T07:37:11;10.77;;;4.03;;
76447;SDS011;65284;51.040;13.722;2023-04-25T07:39:38;8.48;;;4.10;;
76447;SDS011;65284;51.040;13.722;2023-04-25T07:42:04;9.38;;;4.63;;
76447;SDS011;65284;51.040;13.722;2023-04-25T07:44:34;10.40;;;4.85;;
76447;SDS011;65284;51.040;13.722;2023-04-25T07:47:05;10.30;;;4.32;;
76447;SDS011;65284;51.040;13.722;2023-04-25T07:49:33;8.77;;;4.30;;
76447;SDS011;65284;51.040;13.722;2023-04-25T07:52:01;14.23;;;5.15;;
76447;SDS011;65284;51.040;13.722;2023-04-25T07:54:29;10.48;;;5.40;;
76447;SDS011;65284;51.040;13.722;2023-04-25T07:56:55;8.88;;;4.60;;
76447;SDS011;65284;51.040;13.722;2023-04-25T07:59:22;9.18;;;4.32;;
76447;SDS011;65284;51.040;13.722;2023-04-25T08:01:49;8.32;;;4.03;;
76447;SDS011;65284;51.040;13.722;2023-04-25T08:04:15;6.38;;;3.55;;
76447;SDS011;65284;51.040;13.722;2023-04-25T08:06:42;6.38;;;3.50;;
76447;SDS011;65284;51.040;13.722;2023-04-25T08:09:09;7.90;;;4.15;;
76447;SDS011;65284;51.040;13.722;2023-04-25T08:11:36;8.68;;;4.18;;
76447;SDS011;65284;51.040;13.722;2023-04-25T08:14:02;8.75;;;4.57;;
76447;SDS011;65284;51.040;13.722;2023-04-25T08:16:29;7.65;;;4.35;;
76447;SDS011;65284;51.040;13.722;2023-04-25T08:18:56;9.65;;;4.10;;
76447;SDS011;65284;51.040;13.722;2023-04-25T08:21:22;6.07;;;3.20;;
76447;SDS011;65284;51.040;13.722;2023-04-25T08:23:49;7.72;;;3.58;;
76447;SDS011;65284;51.040;13.722;2023-04-25T08:26:15;7.45;;;3.63;;
76447;SDS011;65284;51.040;13.722;2023-04-25T08:28:42;6.93;;;3.20;;
76447;SDS011;65284;51.040;13.722;2023-04-25T08:31:08;6.38;;;3.10;;
76447;SDS011;65284;51.040;13.722;2023-04-25T08:33:35;10.05;;;3.30;;
76447;SDS011;65284;51.040;13.722;2023-04-25T08:36:02;6.85;;;3.10;;
76447;SDS011;65284;51.040;13.722;2023-04-25T08:38:28;7.13;;;3.10;;
76447;SDS011;65284;51.040;13.722;2023-04-25T08:40:55;7.47;;;3.63;;
76447;SDS011;65284;51.040;13.722;2023-04-25T08:43:23;5.72;;;3.00;;
76447;SDS011;65284;51.040;13.722;2023-04-25T08:45:49;5.43;;;3.08;;
76447;SDS011;65284;51.040;13.722;2023-04-25T08:48:19;8.10;;;3.83;;
76447;SDS011;65284;51.040;13.722;2023-04-25T08:50:51;9.18;;;3.95;;
76447;SDS011;65284;51.040;13.722;2023-04-25T08:53:22;8.45;;;3.53;;
76447;SDS011;65284;51.040;13.722;2023-04-25T08:55:52;8.85;;;3.85;;
76447;SDS011;65284;51.040;13.722;2023-04-25T08:58:20;9.13;;;3.72;;
76447;SDS011;65284;51.040;13.722;2023-04-25T09:00:47;11.30;;;4.30;;
76447;SDS011;65284;51.040;13.722;2023-04-25T09:03:15;8.20;;;4.38;;
76447;SDS011;65284;51.040;13.722;2023-04-25T09:05:42;9.65;;;4.60;;
76447;SDS011;65284;51.040;13.722;2023-04-25T09:08:12;8.65;;;4.60;;
76447;SDS011;65284;51.040;13.722;2023-04-25T09:10:39;11.75;;;5.22;;
76447;SDS011;65284;51.040;13.722;2023-04-25T09:13:10;10.07;;;4.40;;
76447;SDS011;65284;51.040;13.722;2023-04-25T09:15:48;10.82;;;4.40;;
76447;SDS011;65284;51.040;13.722;2023-04-25T09:18:25;8.68;;;4.57;;
76447;SDS011;65284;51.040;13.722;2023-04-25T09:21:17;8.15;;;4.63;;
76447;SDS011;65284;51.040;13.722;2023-04-25T09:23:46;11.43;;;5.53;;
76447;SDS011;65284;51.040;13.722;2023-04-25T09:26:15;11.15;;;5.35;;
76447;SDS011;65284;51.040;13.722;2023-04-25T09:28:44;6.82;;;4.13;;
76447;SDS011;65284;51.040;13.722;2023-04-25T09:31:12;7.70;;;3.70;;
76447;SDS011;65284;51.040;13.722;2023-04-25T09:33:40;7.75;;;4.07;;
76447;SDS011;65284;51.040;13.722;2023-04-25T09:36:08;9.23;;;4.40;;
76447;SDS011;65284;51.040;13.722;2023-04-25T09:38:41;12.85;;;6.10;;
76447;SDS011;65284;51.040;13.722;2023-04-25T09:41:09;9.85;;;4.97;;
76447;SDS011;65284;51.040;13.722;2023-04-25T09:43:37;8.60;;;5.43;;
76447;SDS011;65284;51.040;13.722;2023-04-25T09:46:08;9.55;;;4.95;;
76447;SDS011;65284;51.040;13.722;2023-04-25T09:48:35;9.00;;;5.00;;
76447;SDS011;65284;51.040;13.722;2023-04-25T09:51:06;9.15;;;5.75;;
76447;SDS011;65284;51.040;13.722;2023-04-25T09:53:43;13.23;;;5.72;;
76447;SDS011;65284;51.040;13.722;2023-04-25T09:56:20;9.70;;;5.50;;
76447;SDS011;65284;51.040;13.722;2023-04-25T09:58:48;11.48;;;6.28;;
76447;SDS011;65284;51.040;13.722;2023-04-25T10:01:19;9.20;;;5.78;;
76447;SDS011;65284;51.040;13.722;2023-04-25T10:03:47;9.57;;;6.20;;
76447;SDS011;65284;51.040;13.722;2023-04-25T10:06:18;9.30;;;5.82;;
76447;SDS011;65284;51.040;13.722;2023-04-25T10:08:45;8.48;;;5.10;;
76447;SDS011;65284;51.040;13.722;2023-04-25T10:11:17;9.05;;;4.90;;
76447;SDS011;65284;51.040;13.722;2023-04-25T10:13:44;9.90;;;5.35;;
76447;SDS011;65284;51.040;13.722;2023-04-25T10:16:11;8.23;;;4.65;;
76447;SDS011;65284;51.040;13.722;2023-04-25T10:18:38;7.10;;;4.10;;
76447;SDS011;65284;51.040;13.722;2023-04-25T10:21:04;8.25;;;4.43;;
76447;SDS011;65284;51.040;13.722;2023-04-25T10:23:32;7.28;;;3.63;;
76447;SDS011;65284;51.040;13.722;2023-04-25T10:26:00;13.35;;;4.47;;
76447;SDS011;65284;51.040;13.722;2023-04-25T10:28:28;9.40;;;4.63;;
76447;SDS011;65284;51.040;13.722;2023-04-25T10:30:59;9.20;;;4.93;;
76447;SDS011;65284;51.040;13.722;2023-04-25T10:33:34;8.00;;;4.20;;
76447;SDS011;65284;51.040;13.722;2023-04-25T10:36:09;9.70;;;4.30;;
76447;SDS011;65284;51.040;13.722;2023-04-25T10:38:44;8.25;;;4.57;;
76447;SDS011;65284;51.040;13.722;2023-04-25T10:41:12;10.85;;;4.72;;
76447;SDS011;65284;51.040;13.722;2023-04-25T10:43:40;8.80;;;5.13;;
76447;SDS011;65284;51.040;13.722;2023-04-25T10:48:45;10.20;;;5.10;;
76447;SDS011;65284;51.040;13.722;2023-04-25T10:51:22;14.10;;;7.18;;
76447;SDS011;65284;51.040;13.722;2023-04-25T10:54:08;9.68;;;5.00;;
76447;SDS011;65284;51.040;13.722;2023-04-25T10:56:38;11.68;;;5.22;;
76447;SDS011;65284;51.040;13.722;2023-04-25T11:01:47;12.80;;;5.40;;
76447;SDS011;65284;51.040;13.722;2023-04-25T11:06:55;9.88;;;5.75;;
76447;SDS011;65284;51.040;13.722;2023-04-25T11:09:33;14.68;;;6.40;;
76447;SDS011;65284;51.040;13.722;2023-04-25T11:12:00;11.15;;;4.55;;
76447;SDS011;65284;51.040;13.722;2023-04-25T11:14:27;9.13;;;4.50;;
76447;SDS011;65284;51.040;13.722;2023-04-25T11:16:54;8.18;;;4.38;;
76447;SDS011;65284;51.040;13.722;2023-04-25T11:19:26;9.73;;;4.82;;
76447;SDS011;65284;51.040;13.722;2023-04-25T11:21:54;10.30;;;5.10;;
76447;SDS011;65284;51.040;13.722;2023-04-25T11:24:25;9.23;;;5.03;;
76447;SDS011;65284;51.040;13.722;2023-04-25T11:26:53;5.93;;;3.17;;
76447;SDS011;65284;51.040;13.722;2023-04-25T11:29:23;9.90;;;4.30;;
76447;SDS011;65284;51.040;13.722;2023-04-25T11:31:50;10.45;;;4.18;;
76447;SDS011;65284;51.040;13.722;2023-04-25T11:34:19;6.30;;;3.17;;
76447;SDS011;65284;51.040;13.722;2023-04-25T11:36:46;8.10;;;3.00;;
76447;SDS011;65284;51.040;13.722;2023-04-25T11:39:12;7.80;;;2.50;;
76447;SDS011;65284;51.040;13.722;2023-04-25T11:41:40;5.72;;;1.70;;
76447;SDS011;65284;51.040;13.722;2023-04-25T11:44:08;6.10;;;2.25;;
76447;SDS011;65284;51.040;13.722;2023-04-25T11:46:34;6.53;;;2.13;;
76447;SDS011;65284;51.040;13.722;2023-04-25T11:49:01;5.97;;;2.13;;
76447;SDS011;65284;51.040;13.722;2023-04-25T11:51:28;5.18;;;2.00;;
76447;SDS011;65284;51.040;13.722;2023-04-25T11:53:54;7.05;;;2.63;;
76447;SDS011;65284;51.040;13.722;2023-04-25T11:56:21;7.15;;;2.80;;
76447;SDS011;65284;51.040;13.722;2023-04-25T12:01:49;8.50;;;3.17;;
76447;SDS011;65284;51.040;13.722;2023-04-25T12:06:44;6.38;;;2.70;;
76447;SDS011;65284;51.040;13.722;2023-04-25T12:09:15;9.50;;;3.08;;
76447;SDS011;65284;51.040;13.722;2023-04-25T12:14:12;8.75;;;2.70;;
76447;SDS011;65284;51.040;13.722;2023-04-25T12:16:48;8.65;;;2.95;;
76447;SDS011;65284;51.040;13.722;2023-04-25T12:19:15;6.15;;;2.83;;
76447;SDS011;65284;51.040;13.722;2023-04-25T12:21:43;8.90;;;2.60;;
76447;SDS011;65284;51.040;13.722;2023-04-25T12:24:24;8.55;;;2.90;;
76447;SDS011;65284;51.040;13.722;2023-04-25T12:26:53;10.18;;;2.90;;
76447;SDS011;65284;51.040;13.722;2023-04-25T12:29:25;10.27;;;2.80;;
76447;SDS011;65284;51.040;13.722;2023-04-25T12:32:00;6.82;;;2.97;;
76447;SDS011;65284;51.040;13.722;2023-04-25T12:34:28;12.30;;;3.00;;
76447;SDS011;65284;51.040;13.722;2023-04-25T12:36:54;7.40;;;2.22;;
76447;SDS011;65284;51.040;13.722;2023-04-25T12:39:21;10.95;;;2.90;;
76447;SDS011;65284;51.040;13.722;2023-04-25T12:41:52;9.38;;;2.88;;
76447;SDS011;65284;51.040;13.722;2023-04-25T12:44:20;8.98;;;2.80;;
76447;SDS011;65284;51.040;13.722;2023-04-25T12:46:47;8.10;;;2.80;;
76447;SDS011;65284;51.040;13.722;2023-04-25T12:49:14;8.20;;;2.60;;
76447;SDS011;65284;51.040;13.722;2023-04-25T12:51:44;10.82;;;2.92;;
76447;SDS011;65284;51.040;13.722;2023-04-25T12:54:11;9.23;;;3.17;;
76447;SDS011;65284;51.040;13.722;2023-04-25T12:56:37;12.73;;;3.10;;
76447;SDS011;65284;51.040;13.722;2023-04-25T12:59:04;9.18;;;3.20;;
76447;SDS011;65284;51.040;13.722;2023-04-25T13:01:30;8.00;;;2.63;;
76447;SDS011;65284;51.040;13.722;2023-04-25T13:04:01;25.60;;;9.75;;
76447;SDS011;65284;51.040;13.722;2023-04-25T13:06:28;10.93;;;3.13;;
76447;SDS011;65284;51.040;13.722;2023-04-25T13:08:56;10.85;;;3.40;;
76447;SDS011;65284;51.040;13.722;2023-04-25T13:11:23;9.57;;;3.38;;
76447;SDS011;65284;51.040;13.722;2023-04-25T13:13:49;9.13;;;3.53;;
76447;SDS011;65284;51.040;13.722;2023-04-25T13:16:16;15.13;;;3.63;;
76447;SDS011;65284;51.040;13.722;2023-04-25T13:18:42;12.45;;;3.47;;
76447;SDS011;65284;51.040;13.722;2023-04-25T13:21:09;13.63;;;3.97;;
76447;SDS011;65284;51.040;13.722;2023-04-25T13:23:37;10.95;;;3.65;;
76447;SDS011;65284;51.040;13.722;2023-04-25T13:26:03;15.13;;;4.13;;
76447;SDS011;65284;51.040;13.722;2023-04-25T13:28:30;12.15;;;3.78;;
76447;SDS011;65284;51.040;13.722;2023-04-25T13:30:56;11.65;;;3.72;;
76447;SDS011;65284;51.040;13.722;2023-04-25T13:33:23;16.25;;;3.97;;
76447;SDS011;65284;51.040;13.722;2023-04-25T13:35:49;15.00;;;4.25;;
76447;SDS011;65284;51.040;13.722;2023-04-25T13:38:23;9.73;;;2.80;;
76447;SDS011;65284;51.040;13.722;2023-04-25T13:40:52;11.68;;;2.90;;
76447;SDS011;65284;51.040;13.722;2023-04-25T13:43:22;10.07;;;3.20;;
76447;SDS011;65284;51.040;13.722;2023-04-25T13:45:49;13.05;;;3.60;;
76447;SDS011;65284;51.040;13.722;2023-04-25T13:48:16;13.25;;;3.30;;
76447;SDS011;65284;51.040;13.722;2023-04-25T13:50:43;12.80;;;3.13;;
76447;SDS011;65284;51.040;13.722;2023-04-25T13:53:10;10.55;;;3.10;;
76447;SDS011;65284;51.040;13.722;2023-04-25T13:55:36;15.27;;;3.50;;
76447;SDS011;65284;51.040;13.722;2023-04-25T13:58:03;10.10;;;3.22;;
76447;SDS011;65284;51.040;13.722;2023-04-25T14:00:36;17.40;;;5.05;;
76447;SDS011;65284;51.040;13.722;2023-04-25T14:03:05;13.77;;;3.80;;
76447;SDS011;65284;51.040;13.722;2023-04-25T14:05:34;10.10;;;3.42;;
76447;SDS011;65284;51.040;13.722;2023-04-25T14:08:08;11.85;;;3.40;;
76447;SDS011;65284;51.040;13.722;2023-04-25T14:10:35;9.13;;;3.15;;
76447;SDS011;65284;51.040;13.722;2023-04-25T14:13:03;12.63;;;3.50;;
76447;SDS011;65284;51.040;13.722;2023-04-25T14:15:31;10.27;;;3.58;;
76447;SDS011;65284;51.040;13.722;2023-04-25T14:17:58;11.40;;;3.80;;
76447;SDS011;65284;51.040;13.722;2023-04-25T14:20:26;12.50;;;3.25;;
76447;SDS011;65284;51.040;13.722;2023-04-25T14:22:53;12.45;;;3.50;;
76447;SDS011;65284;51.040;13.722;2023-04-25T14:25:20;14.88;;;3.65;;
76447;SDS011;65284;51.040;13.722;2023-04-25T14:27:47;13.20;;;3.70;;
76447;SDS011;65284;51.040;13.722;2023-04-25T14:30:16;12.27;;;3.90;;
76447;SDS011;65284;51.040;13.722;2023-04-25T14:32:44;11.85;;;3.50;;
76447;SDS011;65284;51.040;13.722;2023-04-25T14:35:11;11.90;;;3.85;;
76447;SDS011;65284;51.040;13.722;2023-04-25T14:37:38;12.60;;;3.95;;
76447;SDS011;65284;51.040;13.722;2023-04-25T14:40:05;11.38;;;3.78;;
76447;SDS011;65284;51.040;13.722;2023-04-25T14:42:33;11.95;;;3.92;;
76447;SDS011;65284;51.040;13.722;2023-04-25T14:45:00;9.93;;;3.45;;
76447;SDS011;65284;51.040;13.722;2023-04-25T14:47:26;11.07;;;3.30;;